Latest Weather Observations for Witchcliffe

IDW60801

Issued at 10:34 pm WST Friday 21 July 2017 (issued every 30 minutes, with the page automatically refreshed every 10 minutes)

About weather observations | Map of weather stations | Latest weather observations for WA | Other Formats
Station Details ID: 009746 Name: WITCHCLIFFE Lat: -34.03 Lon: 115.10 Height: 80.0 m
Data from the previous 72 hours. | See also: Recent months at Witchcliffe
Date/Time
WST
Temp
°C
App
Temp
°C
Dew
Point
°C
Rel
Hum
%
Delta-T
°C
Wind Press
QNH
hPa
Press
MSL
hPa
Rain since
9am
mm
Dir  Spd
km/h
Gust
km/h
Spd
kts
Gust
kts
21/10:30pm 13.5 9.1 4.9 56 4.0 W 17 30 9 16 1014.6 1014.6 9.8
21/10:00pm 13.4 9.4 4.8 56 4.0 W 15 28 8 15 1014.4 1014.4 9.8
21/09:30pm 13.4 8.3 4.3 54 4.2 WSW 20 39 11 21 1014.2 1014.2 9.8
21/09:00pm 13.7 8.7 4.8 55 4.1 WSW 20 35 11 19 1013.9 1013.9 9.8
21/08:30pm 13.7 8.5 5.6 58 3.8 WSW 22 39 12 21 1013.5 1013.5 9.8
21/08:00pm 13.6 9.0 6.7 63 3.3 WSW 20 33 11 18 1013.3 1013.3 9.8
21/07:30pm 14.0 9.6 7.3 64 3.3 WSW 20 37 11 20 1013.0 1013.0 9.8
21/07:00pm 13.6 8.8 5.7 59 3.7 WSW 20 37 11 20 1012.6 1012.6 9.8
21/06:30pm 13.5 7.8 4.9 56 4.0 WSW 24 39 13 21 1012.2 1012.2 9.8
21/06:00pm 13.6 9.6 6.5 62 3.4 WSW 17 33 9 18 1011.8 1011.8 9.8
21/05:30pm 13.2 7.9 5.1 58 3.8 WSW 22 39 12 21 1011.8 1011.8 9.8
21/05:00pm 13.5 8.0 5.9 60 3.6 WSW 24 35 13 19 1011.4 1011.4 9.8
21/04:30pm 14.1 8.9 7.4 64 3.3 WSW 24 39 13 21 1011.1 1011.1 9.8
21/04:00pm 14.2 9.9 7.7 65 3.2 WSW 20 37 11 20 1010.7 1010.7 9.8
21/03:30pm 14.7 10.1 9.5 71 2.7 WSW 24 39 13 21 1010.3 1010.3 9.8
21/03:00pm 14.8 10.7 10.2 74 2.4 WSW 22 37 12 20 1009.9 1009.9 9.8
21/02:53pm 15.4 10.2 10.4 72 2.6 W 28 46 15 25 1009.8 1009.8 9.8
21/02:30pm 15.3 10.0 9.9 70 2.8 W 28 44 15 24 1009.6 1009.6 9.8
21/02:00pm 15.5 12.0 12.3 81 1.8 W 22 39 12 21 1009.3 1009.3 9.8
21/01:30pm 15.0 11.4 13.2 89 1.0 W 24 39 13 21 1009.2 1009.2 9.8
21/01:00pm 14.2 10.3 13.2 94 0.6 W 26 48 14 26 1009.6 1009.6 9.8
21/12:46pm 14.0 9.7 13.1 94 0.5 W 28 52 15 28 1009.4 1009.4 9.2
21/12:30pm 13.5 9.6 12.2 92 0.7 W 24 37 13 20 1009.6 1009.6 8.2
21/12:07pm 13.6 8.6 11.0 84 1.4 W 28 50 15 27 1010.3 1010.3 5.4
21/12:00pm 14.6 10.0 12.3 86 1.3 W 28 43 15 23 1009.7 1009.7 3.2
21/11:30am 15.3 10.0 13.0 86 1.3 WNW 33 54 18 29 1009.8 1009.8 2.6
21/11:11am 15.9 11.4 12.5 80 1.9 WNW 28 50 15 27 1009.6 1009.6 1.2
21/11:00am 15.3 11.9 12.6 84 1.5 WNW 22 39 12 21 1009.8 1009.8 1.2
21/10:32am 17.5 11.8 11.3 67 3.4 WNW 32 52 17 28 1009.8 1009.8 0.0
21/10:30am 17.2 10.9 11.0 67 3.3 WNW 35 52 19 28 1009.8 1009.8 0.0
21/10:00am 16.7 10.6 9.9 64 3.6 WNW 32 50 17 27 1010.0 1010.0 0.0
21/09:31am 16.2 10.7 9.2 63 3.6 WNW 28 56 15 30 1009.8 1009.8 0.0
21/09:30am 16.1 11.0 9.1 63 3.6 WNW 26 56 14 30 1009.9 1009.9 0.0
21/09:23am 16.3 10.9 9.5 64 3.5 WNW 28 46 15 25 1009.9 1009.9 0.0
21/09:00am 15.5 10.9 9.8 69 3.0 WNW 24 39 13 21 1009.9 1009.9 6.0
21/08:30am 15.5 10.6 9.8 69 3.0 WNW 26 44 14 24 1009.7 1009.7 6.0
21/08:18am 15.4 10.1 9.7 69 3.0 WNW 28 46 15 25 1009.5 1009.5 6.0
21/08:00am 15.3 10.3 9.7 69 2.9 WNW 26 44 14 24 1009.4 1009.4 6.0
21/07:30am 15.0 10.4 9.6 70 2.8 WNW 24 43 13 23 1009.3 1009.3 6.0
21/07:00am 14.3 11.0 10.9 80 1.8 WNW 19 33 10 18 1009.3 1009.3 6.0
21/06:30am 14.3 10.7 10.7 79 1.9 WNW 20 35 11 19 1009.2 1009.2 6.0
21/06:00am 14.2 10.6 10.6 79 1.9 WNW 20 32 11 17 1009.2 1009.2 6.0
21/05:30am 14.0 10.0 10.4 79 1.9 WNW 22 35 12 19 1009.3 1009.3 6.0
21/05:00am 13.2 10.2 10.7 85 1.3 WNW 17 30 9 16 1009.2 1009.2 6.0
21/04:30am 13.1 9.8 10.8 86 1.2 WNW 19 33 10 18 1009.2 1009.2 6.0
21/04:00am 13.0 9.8 11.4 90 0.9 WNW 19 26 10 14 1009.4 1009.4 5.8
21/03:30am 12.6 8.2 10.3 86 1.2 WNW 24 43 13 23 1009.6 1009.6 5.8
21/03:00am 13.3 10.3 10.7 84 1.4 W 17 28 9 15 1009.6 1009.6 4.6
21/02:30am 12.7 9.3 10.6 87 1.1 WNW 19 32 10 17 1009.8 1009.8 4.4
21/02:00am 13.6 10.7 9.8 78 2.0 W 15 24 8 13 1009.9 1009.9 2.8
21/01:30am 14.3 10.2 8.7 69 2.8 WNW 20 41 11 22 1010.2 1010.2 2.6
21/01:00am 13.9 9.8 8.5 70 2.7 W 20 32 11 17 1010.3 1010.3 2.6
21/12:30am 14.1 9.8 7.2 63 3.4 W 19 28 10 15 1010.6 1010.6 2.6
21/12:00am 13.9 9.7 7.4 65 3.2 WNW 19 28 10 15 1010.7 1010.7 2.6
 
Date/Time
WST
Temp
°C
App
Temp
°C
Dew
Point
°C
Rel
Hum
%
Delta-T
°C
Wind Press
QNH
hPa
Press
MSL
hPa
Rain since
9am
mm
Dir  Spd
km/h
Gust
km/h
Spd
kts
Gust
kts
20/11:30pm 14.2 10.0 8.4 68 2.9 W 20 35 11 19 1011.0 1011.0 2.6
20/11:00pm 14.3 9.5 7.4 63 3.4 WNW 22 39 12 21 1011.1 1011.1 2.6
20/10:30pm 13.9 9.7 7.4 65 3.2 W 19 30 10 16 1011.0 1011.0 2.6
20/10:00pm 13.3 8.9 8.8 74 2.3 WSW 22 37 12 20 1010.9 1010.9 2.6
20/09:30pm 12.8 8.5 7.9 72 2.4 W 20 35 11 19 1010.8 1010.8 2.6
20/09:00pm 14.1 9.7 6.7 61 3.6 W 19 32 10 17 1010.8 1010.8 2.4
20/08:30pm 13.8 9.2 5.7 58 3.8 W 19 41 10 22 1010.8 1010.8 2.4
20/08:00pm 13.6 10.4 6.9 64 3.3 W 13 24 7 13 1010.7 1010.7 2.4
20/07:30pm 13.6 9.1 6.2 61 3.5 W 19 32 10 17 1010.6 1010.6 2.4
20/07:00pm 13.7 8.3 6.3 61 3.6 WSW 24 37 13 20 1010.4 1010.4 2.4
20/06:30pm 13.8 8.9 7.1 64 3.3 WSW 22 43 12 23 1009.9 1009.9 2.4
20/06:00pm 13.4 8.6 7.2 66 3.0 W 22 35 12 19 1009.5 1009.5 2.4
20/05:30pm 13.6 9.4 8.4 71 2.6 W 20 35 11 19 1009.2 1009.2 2.4
20/05:00pm 13.6 9.8 9.1 74 2.3 W 19 39 10 21 1008.9 1008.9 2.4
20/04:30pm 13.6 9.4 8.4 71 2.6 W 20 39 11 21 1008.8 1008.8 2.4
20/04:00pm 12.9 9.1 9.9 82 1.5 W 20 33 11 18 1008.5 1008.5 2.4
20/03:37pm 12.6 7.0 8.7 77 2.0 W 28 54 15 29 1008.5 1008.5 1.8
20/03:30pm 13.5 9.6 9.4 76 2.1 W 20 50 11 27 1008.0 1008.0 1.6
20/03:00pm 14.1 8.7 9.5 74 2.4 W 28 48 15 26 1007.7 1007.7 1.4
20/02:30pm 13.1 7.0 8.4 73 2.3 WSW 30 52 16 28 1007.5 1007.5 1.4
20/02:00pm 15.6 9.2 8.6 63 3.6 W 32 52 17 28 1007.2 1007.2 1.2
20/01:30pm 15.4 9.7 8.2 62 3.6 W 28 46 15 25 1007.2 1007.2 1.2
20/01:20pm 15.4 9.8 8.9 65 3.3 W 28 56 15 30 1007.2 1007.2 1.2
20/01:00pm 14.3 9.2 9.1 71 2.7 W 26 48 14 26 1007.3 1007.3 1.2
20/12:30pm 15.5 9.5 8.7 64 3.5 W 30 54 16 29 1007.2 1007.2 1.2
20/12:00pm 15.6 9.4 9.3 66 3.3 W 32 50 17 27 1007.4 1007.4 1.2
20/11:49am 14.9 9.4 9.3 69 2.9 W 28 50 15 27 1007.4 1007.4 1.2
20/11:30am 14.1 9.7 10.3 78 2.0 WNW 24 44 13 24 1007.5 1007.5 1.2
20/11:15am 13.0 7.4 8.7 75 2.2 WNW 28 48 15 26 1007.8 1007.8 1.2
20/11:00am 15.1 9.9 8.8 66 3.2 W 26 44 14 24 1007.5 1007.5 0.8
20/10:30am 14.4 8.4 8.6 68 2.9 W 30 48 16 26 1007.6 1007.6 0.8
20/10:23am 14.2 8.6 8.6 69 2.8 W 28 46 15 25 1007.5 1007.5 0.8
20/10:00am 13.8 10.4 10.4 80 1.8 WNW 19 32 10 17 1007.3 1007.3 0.8
20/09:30am 13.7 8.8 8.5 71 2.6 WNW 24 35 13 19 1007.3 1007.3 0.0
20/09:00am 14.6 10.6 9.0 69 2.9 WNW 20 35 11 19 1006.9 1007.0 14.8
20/08:30am 13.4 9.3 7.8 69 2.8 WNW 19 32 10 17 1006.8 1006.9 14.8
20/08:00am 13.6 9.5 6.0 60 3.6 WNW 17 30 9 16 1006.8 1006.9 14.8
20/07:30am 13.3 8.4 5.0 57 3.9 WNW 20 33 11 18 1006.9 1007.0 14.8
20/07:00am 13.0 8.2 4.9 58 3.8 WNW 19 30 10 16 1006.8 1006.9 14.8
20/06:30am 12.6 7.5 4.3 57 3.8 W 20 39 11 21 1006.5 1006.6 14.8
20/06:00am 11.9 7.3 3.9 58 3.6 W 17 26 9 14 1006.4 1006.5 14.8
20/05:30am 12.2 6.5 2.9 53 4.1 W 22 35 12 19 1006.1 1006.2 14.8
20/05:00am 12.1 7.1 3.6 56 3.8 W 19 30 10 16 1006.1 1006.2 14.8
20/04:30am 12.2 6.9 2.9 53 4.1 W 20 35 11 19 1006.1 1006.2 14.8
20/04:00am 12.0 7.0 3.5 56 3.8 W 19 32 10 17 1006.1 1006.2 14.8
20/03:30am 12.2 7.0 3.4 55 3.9 W 20 35 11 19 1006.3 1006.4 14.8
20/03:00am 12.5 7.6 4.2 57 3.8 W 19 32 10 17 1006.0 1006.1 14.8
20/02:30am 12.8 7.3 5.7 62 3.3 W 24 46 13 25 1005.8 1005.8 14.8
20/02:00am 13.2 8.0 7.2 67 2.9 W 24 50 13 27 1005.4 1005.4 14.6
20/01:30am 13.2 9.0 8.3 72 2.4 W 20 39 11 21 1005.0 1005.0 14.6
20/01:00am 13.0 7.0 7.0 67 2.9 W 28 46 15 25 1005.2 1005.2 14.6
20/12:30am 13.5 7.1 7.1 65 3.1 W 30 48 16 26 1005.1 1005.1 14.6
20/12:02am 13.3 7.3 8.6 73 2.4 WNW 30 50 16 27 1005.1 1005.1 14.6
20/12:00am 13.4 7.8 8.7 73 2.4 WNW 28 43 15 23 1005.1 1005.1 14.6
 
Date/Time
WST
Temp
°C
App
Temp
°C
Dew
Point
°C
Rel
Hum
%
Delta-T
°C
Wind Press
QNH
hPa
Press
MSL
hPa
Rain since
9am
mm
Dir  Spd
km/h
Gust
km/h
Spd
kts
Gust
kts
19/11:31pm 12.4 7.0 9.6 83 1.4 WNW 28 46 15 25 1005.3 1005.3 14.6
19/11:30pm 12.2 7.2 9.4 83 1.4 WNW 26 46 14 25 1005.4 1005.4 14.6
19/11:11pm 12.2 7.4 8.7 79 1.7 WNW 24 52 13 28 1005.6 1005.6 14.2
19/11:00pm 11.4 7.2 8.1 80 1.6 NW 20 35 11 19 1005.5 1005.5 14.2
19/10:38pm 13.9 8.2 8.5 70 2.7 NW 28 48 15 26 1005.7 1005.7 13.4
19/10:30pm 13.3 8.9 8.8 74 2.3 WNW 22 46 12 25 1005.7 1005.7 13.4
19/10:17pm 12.7 7.2 9.2 79 1.8 WNW 28 48 15 26 1005.9 1005.9 13.4
19/10:00pm 11.8 5.7 8.3 79 1.7 WNW 30 44 16 24 1006.2 1006.3 13.4
19/09:44pm 12.9 7.1 7.8 71 2.5 WNW 28 74 15 40 1006.3 1006.4 13.2
19/09:30pm 14.2 8.6 8.6 69 2.8 NW 28 48 15 26 1005.7 1005.7 13.2
19/09:29pm 14.1 8.5 8.7 70 2.7 NW 28 48 15 26 1005.7 1005.7 13.2
19/09:00pm 13.2 9.3 9.5 78 1.9 WNW 20 35 11 19 1006.1 1006.2 13.2
19/08:30pm 14.0 9.0 9.4 74 2.4 WNW 26 52 14 28 1006.1 1006.2 12.8
19/08:23pm 14.0 8.6 9.4 74 2.4 W 28 52 15 28 1006.1 1006.2 12.8
19/08:00pm 14.0 9.5 10.0 77 2.1 WNW 24 44 13 24 1005.9 1005.9 12.8
19/07:30pm 13.0 9.5 10.9 87 1.1 WNW 20 39 11 21 1006.0 1006.1 12.8
19/07:11pm 13.3 8.3 11.0 86 1.2 WNW 28 50 15 27 1006.2 1006.3 12.6
19/07:00pm 12.9 8.1 10.4 85 1.3 WNW 26 46 14 25 1006.3 1006.4 12.6
19/06:42pm 13.5 8.5 11.0 85 1.3 WNW 28 56 15 30 1006.2 1006.3 12.2
19/06:30pm 13.6 9.3 12.2 91 0.8 NW 26 44 14 24 1006.1 1006.2 12.2
19/06:00pm 12.3 9.2 11.5 95 0.4 NNW 19 28 10 15 1006.2 1006.3 11.6
19/05:30pm 11.8 8.4 10.5 92 0.7 NW 19 30 10 16 1006.8 1006.9 11.2
19/05:00pm 12.1 7.0 10.7 91 0.7 NNW 28 54 15 29 1006.8 1006.9 9.4
19/04:30pm 12.7 7.7 11.1 90 0.8 NNW 28 46 15 25 1006.9 1007.0 8.2
19/04:28pm 12.6 7.6 11.0 90 0.8 NNW 28 46 15 25 1006.9 1007.0 8.2
19/04:00pm 12.6 7.9 10.8 89 0.9 NNW 26 44 14 24 1006.9 1007.0 6.0
19/03:31pm 13.4 8.1 9.8 79 1.9 NW 28 56 15 30 1007.3 1007.3 4.4
19/03:30pm 13.5 8.5 9.6 77 2.0 NW 26 56 14 30 1007.3 1007.3 4.4
19/03:17pm 14.7 9.6 10.7 77 2.1 NNW 28 50 15 27 1006.6 1006.7 4.2
19/03:00pm 13.5 8.1 11.0 85 1.3 NNW 30 43 16 23 1007.2 1007.2 4.2
19/02:30pm 12.7 5.5 9.0 78 1.9 NNW 37 65 20 35 1007.7 1007.7 4.0
19/02:04pm 15.6 8.9 9.7 68 3.1 NNW 35 56 19 30 1006.9 1007.0 0.8
19/02:00pm 15.1 8.9 10.1 72 2.6 NNW 33 48 18 26 1007.3 1007.3 0.8
19/01:31pm 13.8 8.8 11.1 84 1.4 NW 28 46 15 25 1007.9 1007.9 0.8
19/01:30pm 13.6 8.6 11.0 84 1.4 NW 28 39 15 21 1008.0 1008.0 0.8
19/01:00pm 16.1 9.8 7.3 56 4.4 NW 30 56 16 30 1008.1 1008.1 0.2
19/12:30pm 15.9 8.7 7.7 58 4.1 NW 35 63 19 34 1008.6 1008.6 0.2
19/12:09pm 16.6 8.6 5.9 49 5.2 NNW 37 57 20 31 1009.1 1009.1 0.2
19/12:02pm 16.6 8.9 5.3 47 5.4 NW 35 57 19 31 1009.2 1009.2 0.2
19/12:00pm 16.6 9.1 6.1 50 5.1 NW 35 57 19 31 1009.3 1009.3 0.2
19/11:30am 16.4 10.3 8.4 59 4.1 NNW 30 50 16 27 1010.0 1010.0 0.0
19/11:01am 16.1 9.4 7.3 56 4.4 NW 32 50 17 27 1010.2 1010.2 0.0
19/11:00am 16.1 9.5 7.8 58 4.2 NW 32 46 17 25 1010.2 1010.2 0.0
19/10:39am 15.7 9.8 8.9 64 3.5 NNW 30 50 16 27 1010.5 1010.5 0.0
19/10:30am 15.7 10.9 8.7 63 3.6 NNW 24 43 13 23 1010.6 1010.6 0.0
19/10:04am 15.2 9.3 7.5 60 3.8 NW 28 46 15 25 1010.6 1010.6 0.0
19/10:00am 14.8 9.8 8.1 64 3.4 NNW 24 43 13 23 1010.7 1010.7 0.0
19/09:30am 13.5 8.0 9.2 75 2.2 NNW 28 37 15 20 1010.8 1010.8 0.0
19/09:18am 12.9 6.4 8.0 72 2.4 NW 32 54 17 29 1011.1 1011.1 0.0
19/09:00am 13.4 9.1 9.5 77 2.0 NW 22 41 12 22 1011.0 1011.0 30.6
19/08:30am 12.2 6.5 9.8 85 1.2 NNW 30 57 16 31 1011.2 1011.2 30.4
19/08:27am 12.5 7.2 10.0 85 1.3 NNW 28 57 15 31 1011.3 1011.3 30.4
19/08:00am 12.2 7.2 9.6 84 1.3 NW 26 48 14 26 1011.1 1011.1 29.8
19/07:52am 12.7 7.4 9.9 83 1.4 NNW 28 46 15 25 1010.8 1010.8 29.0
19/07:30am 12.9 8.9 9.2 78 1.9 NNW 20 33 11 18 1011.0 1011.0 28.4
19/07:00am 12.0 9.7 10.4 90 0.8 NNW 13 17 7 9 1010.9 1010.9 28.4
19/06:30am 11.5 8.3 10.1 91 0.7 NNW 17 28 9 15 1011.1 1011.1 28.4
19/06:00am 12.1 9.8 10.3 89 0.9 NW 13 24 7 13 1011.3 1011.3 27.4
19/05:30am 11.7 8.3 9.3 85 1.2 NW 17 24 9 13 1011.0 1011.0 27.4
19/05:00am 12.5 7.9 8.0 74 2.2 NW 22 35 12 19 1011.4 1011.4 26.4
19/04:30am 13.5 9.1 7.5 67 3.0 NW 20 33 11 18 1011.2 1011.2 26.2
19/04:00am 13.1 9.7 9.0 76 2.1 NW 17 28 9 15 1011.5 1011.5 26.2
19/03:30am 12.1 9.2 9.5 84 1.3 NNW 15 24 8 13 1011.7 1011.7 26.2
19/03:00am 11.9 10.1 9.6 86 1.2 NW 9 20 5 11 1011.7 1011.7 26.2
19/02:30am 12.2 9.1 10.3 88 1.0 NW 17 32 9 17 1012.0 1012.0 26.2
19/02:00am 12.1 8.4 10.2 88 1.0 WNW 20 32 11 17 1012.4 1012.4 26.2
19/01:30am 12.2 9.0 10.1 87 1.1 NW 17 30 9 16 1012.1 1012.1 25.8
19/01:00am 11.8 9.2 9.5 86 1.2 WNW 13 20 7 11 1012.2 1012.2 25.4
19/12:30am 12.8 10.2 10.7 87 1.1 NW 15 28 8 15 1012.5 1012.5 24.8
19/12:00am 12.6 10.3 11.7 94 0.5 NW 15 28 8 15 1012.5 1012.5 24.8
 
Date/Time
WST
Temp
°C
App
Temp
°C
Dew
Point
°C
Rel
Hum
%
Delta-T
°C
Wind Press
QNH
hPa
Press
MSL
hPa
Rain since
9am
mm
Dir  Spd
km/h
Gust
km/h
Spd
kts
Gust
kts
18/11:30pm 12.7 10.8 11.9 95 0.4 NW 13 19 7 10 1012.7 1012.7 24.4
18/11:00pm 12.4 10.1 11.8 96 0.3 NW 15 32 8 17 1012.8 1012.8 24.2

Other Formats:

Comma delimited format used in spreadsheet applications
http://www.bom.gov.au/fwo/IDW60801/IDW60801.95641.axf

JavaScript Object Notation format (JSON) in row-major order
http://www.bom.gov.au/fwo/IDW60801/IDW60801.95641.json